sensor_id;sensor_type;location;lat;lon;timestamp;pressure;altitude;pressure_sealevel;temperature;humidity
61037;BME280;57313;47.040;15.498;2022-07-05T00:02:09;97028.50;;;18.09;100.00
61037;BME280;57313;47.040;15.498;2022-07-05T00:04:36;97029.09;;;18.03;100.00
61037;BME280;57313;47.040;15.498;2022-07-05T00:07:04;97034.22;;;18.05;100.00
61037;BME280;57313;47.040;15.498;2022-07-05T00:09:31;97002.44;;;18.06;100.00
61037;BME280;57313;47.040;15.498;2022-07-05T00:12:00;96994.41;;;18.08;100.00
61037;BME280;57313;47.040;15.498;2022-07-05T00:14:27;96997.19;;;18.06;100.00
61037;BME280;57313;47.040;15.498;2022-07-05T00:16:55;96998.00;;;18.07;100.00
61037;BME280;57313;47.040;15.498;2022-07-05T00:19:22;97008.53;;;18.07;100.00
61037;BME280;57313;47.040;15.498;2022-07-05T00:21:50;96990.84;;;17.99;100.00
61037;BME280;57313;47.040;15.498;2022-07-05T00:24:17;96996.94;;;18.00;100.00
61037;BME280;57313;47.040;15.498;2022-07-05T00:26:44;96992.78;;;17.97;100.00
61037;BME280;57313;47.040;15.498;2022-07-05T00:29:13;96994.47;;;17.98;100.00
61037;BME280;57313;47.040;15.498;2022-07-05T00:31:40;96999.59;;;18.00;100.00
61037;BME280;57313;47.040;15.498;2022-07-05T00:34:08;97000.69;;;17.97;100.00
61037;BME280;57313;47.040;15.498;2022-07-05T00:36:35;97010.13;;;18.00;100.00
61037;BME280;57313;47.040;15.498;2022-07-05T00:39:03;97023.69;;;18.05;100.00
61037;BME280;57313;47.040;15.498;2022-07-05T00:41:31;97035.28;;;18.12;100.00
61037;BME280;57313;47.040;15.498;2022-07-05T00:43:59;97041.75;;;18.18;100.00
61037;BME280;57313;47.040;15.498;2022-07-05T00:46:28;97052.16;;;18.19;100.00
61037;BME280;57313;47.040;15.498;2022-07-05T00:48:57;97048.41;;;18.22;100.00
61037;BME280;57313;47.040;15.498;2022-07-05T00:51:25;97041.69;;;18.09;100.00
61037;BME280;57313;47.040;15.498;2022-07-05T00:53:56;97046.94;;;18.09;100.00
61037;BME280;57313;47.040;15.498;2022-07-05T00:56:25;97047.78;;;18.10;100.00
61037;BME280;57313;47.040;15.498;2022-07-05T00:58:53;97025.72;;;18.11;100.00
61037;BME280;57313;47.040;15.498;2022-07-05T01:01:20;97018.63;;;18.11;100.00
61037;BME280;57313;47.040;15.498;2022-07-05T01:03:49;96991.47;;;18.11;100.00
61037;BME280;57313;47.040;15.498;2022-07-05T01:06:17;96999.81;;;18.06;100.00
61037;BME280;57313;47.040;15.498;2022-07-05T01:08:45;97001.09;;;18.02;100.00
61037;BME280;57313;47.040;15.498;2022-07-05T01:11:13;97010.13;;;18.00;100.00
61037;BME280;57313;47.040;15.498;2022-07-05T01:13:41;97020.13;;;17.96;100.00
61037;BME280;57313;47.040;15.498;2022-07-05T01:16:09;97027.34;;;17.94;100.00
61037;BME280;57313;47.040;15.498;2022-07-05T01:18:36;97018.75;;;17.92;100.00
61037;BME280;57313;47.040;15.498;2022-07-05T01:21:06;97014.31;;;17.92;100.00
61037;BME280;57313;47.040;15.498;2022-07-05T01:23:36;97025.41;;;17.86;100.00
61037;BME280;57313;47.040;15.498;2022-07-05T01:26:04;97025.41;;;17.86;100.00
61037;BME280;57313;47.040;15.498;2022-07-05T01:28:31;97030.66;;;17.86;100.00
61037;BME280;57313;47.040;15.498;2022-07-05T01:31:00;97040.78;;;17.91;100.00
61037;BME280;57313;47.040;15.498;2022-07-05T01:33:28;97075.16;;;17.99;100.00
61037;BME280;57313;47.040;15.498;2022-07-05T01:35:57;97081.84;;;17.93;100.00
61037;BME280;57313;47.040;15.498;2022-07-05T01:38:25;97094.88;;;17.95;100.00
61037;BME280;57313;47.040;15.498;2022-07-05T01:40:54;97103.00;;;18.02;100.00
61037;BME280;57313;47.040;15.498;2022-07-05T01:43:23;97083.06;;;17.99;100.00
61037;BME280;57313;47.040;15.498;2022-07-05T01:45:50;97077.38;;;18.04;100.00
61037;BME280;57313;47.040;15.498;2022-07-05T01:48:20;97076.50;;;18.03;100.00
61037;BME280;57313;47.040;15.498;2022-07-05T01:50:51;97074.72;;;18.04;100.00
61037;BME280;57313;47.040;15.498;2022-07-05T01:53:23;97084.94;;;18.07;100.00
61037;BME280;57313;47.040;15.498;2022-07-05T01:55:51;97082.16;;;18.08;100.00
61037;BME280;57313;47.040;15.498;2022-07-05T01:58:20;97076.66;;;18.02;100.00
61037;BME280;57313;47.040;15.498;2022-07-05T02:00:50;97078.63;;;18.00;100.00
61037;BME280;57313;47.040;15.498;2022-07-05T02:03:18;97072.41;;;17.91;100.00
61037;BME280;57313;47.040;15.498;2022-07-05T02:06:06;97055.22;;;17.87;100.00
61037;BME280;57313;47.040;15.498;2022-07-05T02:08:34;97060.50;;;17.87;100.00
61037;BME280;57313;47.040;15.498;2022-07-05T02:11:02;97057.84;;;17.87;100.00
61037;BME280;57313;47.040;15.498;2022-07-05T02:13:31;97048.69;;;17.91;100.00
61037;BME280;57313;47.040;15.498;2022-07-05T02:15:58;97024.56;;;17.86;100.00
61037;BME280;57313;47.040;15.498;2022-07-05T02:18:26;97012.38;;;17.85;100.00
61037;BME280;57313;47.040;15.498;2022-07-05T02:20:53;97004.63;;;17.83;100.00
61037;BME280;57313;47.040;15.498;2022-07-05T02:23:20;96998.09;;;17.87;100.00
61037;BME280;57313;47.040;15.498;2022-07-05T02:25:48;96979.53;;;17.89;100.00
61037;BME280;57313;47.040;15.498;2022-07-05T02:28:15;96962.19;;;17.86;100.00
61037;BME280;57313;47.040;15.498;2022-07-05T02:30:44;96958.06;;;17.84;100.00
61037;BME280;57313;47.040;15.498;2022-07-05T02:33:11;96940.44;;;17.84;100.00
61037;BME280;57313;47.040;15.498;2022-07-05T02:35:38;96931.56;;;17.85;100.00
61037;BME280;57313;47.040;15.498;2022-07-05T02:38:05;96916.34;;;17.79;100.00
61037;BME280;57313;47.040;15.498;2022-07-05T02:40:33;96909.94;;;17.82;100.00
61037;BME280;57313;47.040;15.498;2022-07-05T02:43:00;96893.75;;;17.76;100.00
61037;BME280;57313;47.040;15.498;2022-07-05T02:45:28;96905.13;;;17.77;100.00
61037;BME280;57313;47.040;15.498;2022-07-05T02:47:57;96912.50;;;17.73;100.00
61037;BME280;57313;47.040;15.498;2022-07-05T02:50:25;96932.47;;;17.66;100.00
61037;BME280;57313;47.040;15.498;2022-07-05T02:52:52;96942.25;;;17.56;100.00
61037;BME280;57313;47.040;15.498;2022-07-05T02:55:20;96947.81;;;17.53;100.00
61037;BME280;57313;47.040;15.498;2022-07-05T02:57:47;96940.06;;;17.51;100.00
61037;BME280;57313;47.040;15.498;2022-07-05T03:00:14;96946.94;;;17.52;100.00
61037;BME280;57313;47.040;15.498;2022-07-05T03:02:42;96941.09;;;17.58;100.00
61037;BME280;57313;47.040;15.498;2022-07-05T03:05:11;96953.53;;;17.66;100.00
61037;BME280;57313;47.040;15.498;2022-07-05T03:07:39;96960.78;;;17.64;100.00
61037;BME280;57313;47.040;15.498;2022-07-05T03:10:06;96967.00;;;17.63;100.00
61037;BME280;57313;47.040;15.498;2022-07-05T03:12:34;96965.09;;;17.55;100.00
61037;BME280;57313;47.040;15.498;2022-07-05T03:15:01;96981.75;;;17.56;100.00
61037;BME280;57313;47.040;15.498;2022-07-05T03:17:37;96978.97;;;17.57;100.00
61037;BME280;57313;47.040;15.498;2022-07-05T03:20:05;96984.66;;;17.53;100.00
61037;BME280;57313;47.040;15.498;2022-07-05T03:22:34;97001.41;;;17.52;100.00
61037;BME280;57313;47.040;15.498;2022-07-05T03:25:01;97001.13;;;17.55;100.00
61037;BME280;57313;47.040;15.498;2022-07-05T03:27:29;97001.53;;;17.60;100.00
61037;BME280;57313;47.040;15.498;2022-07-05T03:29:56;96997.50;;;17.66;100.00
61037;BME280;57313;47.040;15.498;2022-07-05T03:32:23;96993.75;;;17.68;100.00
61037;BME280;57313;47.040;15.498;2022-07-05T03:34:50;96995.69;;;17.66;100.00
61037;BME280;57313;47.040;15.498;2022-07-05T03:37:17;96998.88;;;17.70;100.00
61037;BME280;57313;47.040;15.498;2022-07-05T03:39:46;97006.06;;;17.68;100.00
61037;BME280;57313;47.040;15.498;2022-07-05T03:42:14;97004.97;;;17.70;100.00
61037;BME280;57313;47.040;15.498;2022-07-05T03:44:41;97007.31;;;17.73;100.00
61037;BME280;57313;47.040;15.498;2022-07-05T03:47:08;97015.19;;;17.73;100.00
61037;BME280;57313;47.040;15.498;2022-07-05T03:49:35;97016.31;;;17.71;100.00
61037;BME280;57313;47.040;15.498;2022-07-05T03:52:03;97015.09;;;17.65;100.00
61037;BME280;57313;47.040;15.498;2022-07-05T03:54:30;97011.19;;;17.69;100.00
61037;BME280;57313;47.040;15.498;2022-07-05T03:56:59;97017.59;;;17.67;100.00
61037;BME280;57313;47.040;15.498;2022-07-05T03:59:27;97006.06;;;17.68;100.00
61037;BME280;57313;47.040;15.498;2022-07-05T04:01:54;97015.34;;;17.72;100.00
61037;BME280;57313;47.040;15.498;2022-07-05T04:04:21;97021.28;;;17.74;100.00
61037;BME280;57313;47.040;15.498;2022-07-05T04:06:49;97019.50;;;17.74;100.00
61037;BME280;57313;47.040;15.498;2022-07-05T04:09:16;97015.06;;;17.75;100.00
61037;BME280;57313;47.040;15.498;2022-07-05T04:11:43;97016.72;;;17.76;100.00
61037;BME280;57313;47.040;15.498;2022-07-05T04:14:12;97018.22;;;17.79;100.00
61037;BME280;57313;47.040;15.498;2022-07-05T04:16:39;97013.66;;;17.81;100.00
61037;BME280;57313;47.040;15.498;2022-07-05T04:19:06;97013.38;;;17.84;100.00
61037;BME280;57313;47.040;15.498;2022-07-05T04:21:33;97009.06;;;17.83;100.00
61037;BME280;57313;47.040;15.498;2022-07-05T04:24:01;97011.56;;;17.84;100.00
61037;BME280;57313;47.040;15.498;2022-07-05T04:26:28;97009.59;;;17.86;100.00
61037;BME280;57313;47.040;15.498;2022-07-05T04:28:55;97016.28;;;17.90;100.00
61037;BME280;57313;47.040;15.498;2022-07-05T04:31:24;97010.56;;;17.95;100.00
61037;BME280;57313;47.040;15.498;2022-07-05T04:33:52;97020.94;;;17.97;100.00
61037;BME280;57313;47.040;15.498;2022-07-05T04:36:22;97012.75;;;18.00;100.00
61037;BME280;57313;47.040;15.498;2022-07-05T04:38:49;97015.38;;;18.00;100.00
61037;BME280;57313;47.040;15.498;2022-07-05T04:41:16;97009.31;;;17.99;100.00
61037;BME280;57313;47.040;15.498;2022-07-05T04:43:44;97016.06;;;18.02;100.00
61037;BME280;57313;47.040;15.498;2022-07-05T04:46:11;97018.69;;;18.02;100.00
61037;BME280;57313;47.040;15.498;2022-07-05T04:48:40;97014.13;;;18.04;100.00
61037;BME280;57313;47.040;15.498;2022-07-05T04:51:09;97017.59;;;18.04;100.00
61037;BME280;57313;47.040;15.498;2022-07-05T04:53:36;97013.44;;;18.02;100.00
61037;BME280;57313;47.040;15.498;2022-07-05T04:56:04;97006.22;;;18.04;100.00
61037;BME280;57313;47.040;15.498;2022-07-05T04:58:31;97003.44;;;18.05;100.00
61037;BME280;57313;47.040;15.498;2022-07-05T05:00:59;97016.44;;;18.07;100.00
61037;BME280;57313;47.040;15.498;2022-07-05T05:03:26;97009.69;;;18.04;100.00
61037;BME280;57313;47.040;15.498;2022-07-05T05:05:55;97017.44;;;18.06;100.00
61037;BME280;57313;47.040;15.498;2022-07-05T05:08:22;97008.88;;;18.04;100.00
61037;BME280;57313;47.040;15.498;2022-07-05T05:10:50;97008.38;;;18.08;100.00
61037;BME280;57313;47.040;15.498;2022-07-05T05:13:17;96996.44;;;18.14;100.00
61037;BME280;57313;47.040;15.498;2022-07-05T05:15:45;96997.09;;;18.16;100.00
61037;BME280;57313;47.040;15.498;2022-07-05T05:18:12;96998.78;;;18.17;100.00
61037;BME280;57313;47.040;15.498;2022-07-05T05:20:40;96998.09;;;18.15;100.00
61037;BME280;57313;47.040;15.498;2022-07-05T05:23:08;96994.19;;;18.19;100.00
61037;BME280;57313;47.040;15.498;2022-07-05T05:25:36;96992.09;;;18.23;100.00
61037;BME280;57313;47.040;15.498;2022-07-05T05:28:03;96995.69;;;18.22;100.00
61037;BME280;57313;47.040;15.498;2022-07-05T05:30:31;96997.88;;;18.26;100.00
61037;BME280;57313;47.040;15.498;2022-07-05T05:32:58;96989.84;;;18.28;100.00
61037;BME280;57313;47.040;15.498;2022-07-05T05:35:26;96988.56;;;18.32;100.00
61037;BME280;57313;47.040;15.498;2022-07-05T05:37:54;96993.84;;;18.32;100.00
61037;BME280;57313;47.040;15.498;2022-07-05T05:40:25;97003.63;;;18.40;100.00
61037;BME280;57313;47.040;15.498;2022-07-05T05:42:53;96996.56;;;18.40;100.00
61037;BME280;57313;47.040;15.498;2022-07-05T05:45:20;97000.41;;;18.46;100.00
61037;BME280;57313;47.040;15.498;2022-07-05T05:47:49;96998.59;;;18.46;100.00
61037;BME280;57313;47.040;15.498;2022-07-05T05:50:20;97001.44;;;18.53;100.00
61037;BME280;57313;47.040;15.498;2022-07-05T05:52:47;97000.31;;;18.56;100.00
61037;BME280;57313;47.040;15.498;2022-07-05T05:55:15;97002.13;;;18.55;100.00
61037;BME280;57313;47.040;15.498;2022-07-05T05:57:43;97009.75;;;18.58;100.00
61037;BME280;57313;47.040;15.498;2022-07-05T06:00:11;96995.72;;;18.58;100.00
61037;BME280;57313;47.040;15.498;2022-07-05T06:02:39;96992.25;;;18.57;100.00
61037;BME280;57313;47.040;15.498;2022-07-05T06:05:07;96990.75;;;18.55;100.00
61037;BME280;57313;47.040;15.498;2022-07-05T06:07:52;96997.00;;;18.54;100.00
61037;BME280;57313;47.040;15.498;2022-07-05T06:10:22;96994.06;;;18.57;100.00
61037;BME280;57313;47.040;15.498;2022-07-05T06:12:52;96993.63;;;18.61;100.00
61037;BME280;57313;47.040;15.498;2022-07-05T06:15:20;97006.50;;;18.64;100.00
61037;BME280;57313;47.040;15.498;2022-07-05T06:17:48;97002.72;;;18.67;100.00
61037;BME280;57313;47.040;15.498;2022-07-05T06:20:17;97010.63;;;18.67;100.00
61037;BME280;57313;47.040;15.498;2022-07-05T06:22:44;97006.72;;;18.71;100.00
61037;BME280;57313;47.040;15.498;2022-07-05T06:25:11;97015.84;;;18.77;100.00
61037;BME280;57313;47.040;15.498;2022-07-05T06:27:51;97006.94;;;18.78;100.00
61037;BME280;57313;47.040;15.498;2022-07-05T06:30:20;97019.16;;;18.79;100.00
61037;BME280;57313;47.040;15.498;2022-07-05T06:32:49;97016.66;;;18.77;100.00
61037;BME280;57313;47.040;15.498;2022-07-05T06:35:16;97020.66;;;18.81;100.00
61037;BME280;57313;47.040;15.498;2022-07-05T06:37:45;97025.75;;;18.83;100.00
61037;BME280;57313;47.040;15.498;2022-07-05T06:40:14;97019.09;;;18.89;100.00
61037;BME280;57313;47.040;15.498;2022-07-05T06:42:44;97015.34;;;18.91;100.00
61037;BME280;57313;47.040;15.498;2022-07-05T06:45:12;97009.91;;;18.93;100.00
61037;BME280;57313;47.040;15.498;2022-07-05T06:47:40;97021.78;;;18.97;100.00
61037;BME280;57313;47.040;15.498;2022-07-05T06:50:07;97023.31;;;18.99;100.00
61037;BME280;57313;47.040;15.498;2022-07-05T06:52:35;97031.59;;;19.05;100.00
61037;BME280;57313;47.040;15.498;2022-07-05T06:55:03;97019.25;;;19.05;100.00
61037;BME280;57313;47.040;15.498;2022-07-05T06:57:30;97026.69;;;19.10;100.00
61037;BME280;57313;47.040;15.498;2022-07-05T06:59:59;97031.38;;;19.16;100.00
61037;BME280;57313;47.040;15.498;2022-07-05T07:02:28;97031.22;;;19.17;100.00
61037;BME280;57313;47.040;15.498;2022-07-05T07:04:55;97017.56;;;19.22;100.00
61037;BME280;57313;47.040;15.498;2022-07-05T07:07:41;97025.00;;;19.27;100.00
61037;BME280;57313;47.040;15.498;2022-07-05T07:10:08;97022.88;;;19.30;100.00
61037;BME280;57313;47.040;15.498;2022-07-05T07:12:36;97024.22;;;19.34;100.00
61037;BME280;57313;47.040;15.498;2022-07-05T07:15:04;97017.78;;;19.37;100.00
61037;BME280;57313;47.040;15.498;2022-07-05T07:17:32;97035.66;;;19.43;100.00
61037;BME280;57313;47.040;15.498;2022-07-05T07:19:59;97031.22;;;19.44;100.00
61037;BME280;57313;47.040;15.498;2022-07-05T07:22:27;97020.97;;;19.41;100.00
61037;BME280;57313;47.040;15.498;2022-07-05T07:24:54;97017.63;;;19.38;100.00
61037;BME280;57313;47.040;15.498;2022-07-05T07:27:21;97013.38;;;19.37;100.00
61037;BME280;57313;47.040;15.498;2022-07-05T07:29:48;97022.75;;;19.40;100.00
61037;BME280;57313;47.040;15.498;2022-07-05T07:32:15;97028.03;;;19.40;100.00
61037;BME280;57313;47.040;15.498;2022-07-05T07:34:44;97018.34;;;19.41;100.00
61037;BME280;57313;47.040;15.498;2022-07-05T07:37:11;97029.56;;;19.43;100.00
61037;BME280;57313;47.040;15.498;2022-07-05T07:39:39;97033.56;;;19.47;100.00
61037;BME280;57313;47.040;15.498;2022-07-05T07:42:07;97038.38;;;19.51;100.00
61037;BME280;57313;47.040;15.498;2022-07-05T07:44:34;97030.28;;;19.53;100.00
61037;BME280;57313;47.040;15.498;2022-07-05T07:47:01;97032.13;;;19.61;100.00
61037;BME280;57313;47.040;15.498;2022-07-05T07:49:29;97019.59;;;19.63;100.00
61037;BME280;57313;47.040;15.498;2022-07-05T07:51:58;97021.63;;;19.69;100.00
61037;BME280;57313;47.040;15.498;2022-07-05T07:54:25;97020.47;;;19.71;100.00
61037;BME280;57313;47.040;15.498;2022-07-05T07:56:53;97022.50;;;19.78;100.00
61037;BME280;57313;47.040;15.498;2022-07-05T07:59:21;97016.25;;;19.79;100.00
61037;BME280;57313;47.040;15.498;2022-07-05T08:01:48;97030.97;;;19.81;100.00
61037;BME280;57313;47.040;15.498;2022-07-05T08:04:16;97024.34;;;19.85;100.00
61037;BME280;57313;47.040;15.498;2022-07-05T08:06:44;97028.19;;;19.91;100.00
61037;BME280;57313;47.040;15.498;2022-07-05T08:09:13;97040.59;;;19.99;100.00
61037;BME280;57313;47.040;15.498;2022-07-05T08:11:44;97038.16;;;20.05;100.00
61037;BME280;57313;47.040;15.498;2022-07-05T08:14:12;97043.97;;;20.09;100.00
61037;BME280;57313;47.040;15.498;2022-07-05T08:16:40;97028.25;;;20.07;100.00
61037;BME280;57313;47.040;15.498;2022-07-05T08:19:16;97034.53;;;20.06;100.00
61037;BME280;57313;47.040;15.498;2022-07-05T08:21:44;97030.91;;;20.07;100.00
61037;BME280;57313;47.040;15.498;2022-07-05T08:24:13;97036.53;;;20.13;100.00
61037;BME280;57313;47.040;15.498;2022-07-05T08:26:41;97050.78;;;20.20;100.00
61037;BME280;57313;47.040;15.498;2022-07-05T08:29:10;97041.19;;;20.19;100.00
61037;BME280;57313;47.040;15.498;2022-07-05T08:31:44;97036.91;;;20.26;100.00
61037;BME280;57313;47.040;15.498;2022-07-05T08:34:12;97039.91;;;20.31;100.00
61037;BME280;57313;47.040;15.498;2022-07-05T08:36:40;97031.47;;;20.27;100.00
61037;BME280;57313;47.040;15.498;2022-07-05T08:39:08;97049.97;;;20.27;100.00
61037;BME280;57313;47.040;15.498;2022-07-05T08:41:37;97036.59;;;20.29;100.00
61037;BME280;57313;47.040;15.498;2022-07-05T08:44:05;97045.69;;;20.35;100.00
61037;BME280;57313;47.040;15.498;2022-07-05T08:46:36;97050.50;;;20.39;100.00
61037;BME280;57313;47.040;15.498;2022-07-05T08:49:05;97042.91;;;20.44;100.00
61037;BME280;57313;47.040;15.498;2022-07-05T08:51:38;97044.06;;;20.50;100.00
61037;BME280;57313;47.040;15.498;2022-07-05T08:54:09;97047.06;;;20.55;100.00
61037;BME280;57313;47.040;15.498;2022-07-05T08:56:38;97043.31;;;20.66;100.00
61037;BME280;57313;47.040;15.498;2022-07-05T08:59:25;97046.16;;;20.73;100.00
61037;BME280;57313;47.040;15.498;2022-07-05T09:01:52;97040.19;;;20.79;100.00
61037;BME280;57313;47.040;15.498;2022-07-05T09:04:22;97038.38;;;20.88;100.00
61037;BME280;57313;47.040;15.498;2022-07-05T09:06:53;97048.63;;;20.91;100.00
61037;BME280;57313;47.040;15.498;2022-07-05T09:09:24;97038.22;;;20.97;100.00
61037;BME280;57313;47.040;15.498;2022-07-05T09:11:54;97038.38;;;21.04;100.00
61037;BME280;57313;47.040;15.498;2022-07-05T09:14:43;97036.53;;;21.13;100.00
61037;BME280;57313;47.040;15.498;2022-07-05T09:17:12;97040.03;;;21.22;100.00
61037;BME280;57313;47.040;15.498;2022-07-05T09:19:41;97037.84;;;21.25;100.00
61037;BME280;57313;47.040;15.498;2022-07-05T09:22:09;97039.84;;;21.31;100.00
61037;BME280;57313;47.040;15.498;2022-07-05T09:24:44;97035.22;;;21.33;100.00
61037;BME280;57313;47.040;15.498;2022-07-05T09:27:14;97026.75;;;21.30;100.00
61037;BME280;57313;47.040;15.498;2022-07-05T09:29:53;97034.22;;;21.34;100.00
61037;BME280;57313;47.040;15.498;2022-07-05T09:32:28;97030.88;;;21.41;100.00
61037;BME280;57313;47.040;15.498;2022-07-05T09:34:54;97029.91;;;21.42;100.00
61037;BME280;57313;47.040;15.498;2022-07-05T09:37:42;97043.97;;;21.42;100.00
61037;BME280;57313;47.040;15.498;2022-07-05T09:40:11;97031.06;;;21.39;100.00
61037;BME280;57313;47.040;15.498;2022-07-05T09:42:48;97046.97;;;21.47;100.00
61037;BME280;57313;47.040;15.498;2022-07-05T09:45:22;97042.66;;;21.46;100.00
61037;BME280;57313;47.040;15.498;2022-07-05T09:47:50;97033.38;;;21.42;100.00
61037;BME280;57313;47.040;15.498;2022-07-05T09:50:38;97033.19;;;21.44;100.00
61037;BME280;57313;47.040;15.498;2022-07-05T09:53:44;97042.81;;;21.53;100.00
61037;BME280;57313;47.040;15.498;2022-07-05T09:56:12;97043.31;;;21.57;100.00
61037;BME280;57313;47.040;15.498;2022-07-05T09:58:41;97031.53;;;21.67;100.00
61037;BME280;57313;47.040;15.498;2022-07-05T10:01:28;97045.06;;;21.81;100.00
61037;BME280;57313;47.040;15.498;2022-07-05T10:03:58;97036.59;;;21.85;100.00
61037;BME280;57313;47.040;15.498;2022-07-05T10:06:26;97042.56;;;21.87;100.00
61037;BME280;57313;47.040;15.498;2022-07-05T10:08:54;97047.03;;;21.87;100.00
61037;BME280;57313;47.040;15.498;2022-07-05T10:11:23;97034.25;;;21.91;100.00
61037;BME280;57313;47.040;15.498;2022-07-05T10:13:58;97049.66;;;22.03;100.00
61037;BME280;57313;47.040;15.498;2022-07-05T10:16:25;97040.69;;;22.04;100.00
61037;BME280;57313;47.040;15.498;2022-07-05T10:18:54;97045.63;;;22.08;100.00
61037;BME280;57313;47.040;15.498;2022-07-05T10:21:23;97030.88;;;22.13;100.00
61037;BME280;57313;47.040;15.498;2022-07-05T10:23:52;97034.31;;;22.22;100.00
61037;BME280;57313;47.040;15.498;2022-07-05T10:26:20;97038.09;;;22.28;100.00
61037;BME280;57313;47.040;15.498;2022-07-05T10:28:50;97026.13;;;22.40;95.93
61037;BME280;57313;47.040;15.498;2022-07-05T10:31:28;97034.34;;;22.53;100.00
61037;BME280;57313;47.040;15.498;2022-07-05T10:33:56;97041.78;;;22.58;100.00
61037;BME280;57313;47.040;15.498;2022-07-05T10:36:24;97034.34;;;22.53;100.00
61037;BME280;57313;47.040;15.498;2022-07-05T10:38:52;97027.97;;;22.63;100.00
61037;BME280;57313;47.040;15.498;2022-07-05T10:41:23;97026.25;;;22.70;94.97
61037;BME280;57313;47.040;15.498;2022-07-05T10:43:53;97030.31;;;22.81;100.00
61037;BME280;57313;47.040;15.498;2022-07-05T10:46:34;97024.25;;;22.95;97.72
61037;BME280;57313;47.040;15.498;2022-07-05T10:49:14;97021.66;;;23.10;95.29
61037;BME280;57313;47.040;15.498;2022-07-05T10:51:42;97023.91;;;23.21;98.64
61037;BME280;57313;47.040;15.498;2022-07-05T10:54:09;97016.03;;;23.28;88.16
61037;BME280;57313;47.040;15.498;2022-07-05T10:56:37;97015.50;;;23.33;97.43
61037;BME280;57313;47.040;15.498;2022-07-05T10:59:05;97031.00;;;23.44;99.67
61037;BME280;57313;47.040;15.498;2022-07-05T11:01:36;97015.88;;;23.44;76.39
61037;BME280;57313;47.040;15.498;2022-07-05T11:04:17;97011.94;;;23.40;85.84
61037;BME280;57313;47.040;15.498;2022-07-05T11:06:46;97020.38;;;23.44;89.25
61037;BME280;57313;47.040;15.498;2022-07-05T11:09:17;97017.63;;;23.52;88.11
61037;BME280;57313;47.040;15.498;2022-07-05T11:11:46;97015.78;;;23.67;95.13
61037;BME280;57313;47.040;15.498;2022-07-05T11:14:47;97027.09;;;23.84;85.43
61037;BME280;57313;47.040;15.498;2022-07-05T11:17:23;97027.09;;;23.99;82.48
61037;BME280;57313;47.040;15.498;2022-07-05T11:20:13;97018.81;;;24.09;89.76
61037;BME280;57313;47.040;15.498;2022-07-05T11:22:42;97020.63;;;24.24;89.48
61037;BME280;57313;47.040;15.498;2022-07-05T11:25:28;97015.22;;;24.32;79.14
61037;BME280;57313;47.040;15.498;2022-07-05T11:28:07;97013.44;;;24.39;81.38
61037;BME280;57313;47.040;15.498;2022-07-05T11:30:50;97015.34;;;24.45;78.53
61037;BME280;57313;47.040;15.498;2022-07-05T11:33:41;97024.19;;;24.46;79.72
61037;BME280;57313;47.040;15.498;2022-07-05T11:36:23;97022.88;;;24.42;75.02
61037;BME280;57313;47.040;15.498;2022-07-05T11:39:14;97010.22;;;24.44;79.34
61037;BME280;57313;47.040;15.498;2022-07-05T11:41:46;97016.56;;;24.43;73.21
61037;BME280;57313;47.040;15.498;2022-07-05T11:44:14;97011.53;;;24.33;71.55
61037;BME280;57313;47.040;15.498;2022-07-05T11:46:44;97016.59;;;24.28;73.93
61037;BME280;57313;47.040;15.498;2022-07-05T11:49:23;97013.56;;;24.16;75.28
61037;BME280;57313;47.040;15.498;2022-07-05T11:51:59;97018.81;;;24.09;73.28
61037;BME280;57313;47.040;15.498;2022-07-05T11:54:28;97004.63;;;24.02;77.60
61037;BME280;57313;47.040;15.498;2022-07-05T11:56:56;97001.97;;;24.02;77.07
61037;BME280;57313;47.040;15.498;2022-07-05T11:59:24;96998.34;;;24.10;80.53
61037;BME280;57313;47.040;15.498;2022-07-05T12:01:53;96990.72;;;24.22;76.64
61037;BME280;57313;47.040;15.498;2022-07-05T12:04:23;96985.28;;;24.30;75.22
61037;BME280;57313;47.040;15.498;2022-07-05T12:06:51;96984.81;;;24.41;71.77
61037;BME280;57313;47.040;15.498;2022-07-05T12:09:23;96987.59;;;24.54;68.27
61037;BME280;57313;47.040;15.498;2022-07-05T12:11:51;96987.72;;;24.61;66.10
61037;BME280;57313;47.040;15.498;2022-07-05T12:14:21;96979.16;;;24.66;66.72
61037;BME280;57313;47.040;15.498;2022-07-05T12:16:50;96982.25;;;24.69;76.41
61037;BME280;57313;47.040;15.498;2022-07-05T12:19:37;96976.56;;;24.72;60.08
61037;BME280;57313;47.040;15.498;2022-07-05T12:22:05;96980.91;;;24.80;67.08
61037;BME280;57313;47.040;15.498;2022-07-05T12:24:33;96977.94;;;24.90;66.63
61037;BME280;57313;47.040;15.498;2022-07-05T12:27:01;96972.66;;;24.97;56.43
61037;BME280;57313;47.040;15.498;2022-07-05T12:29:28;96966.94;;;25.00;56.09
61037;BME280;57313;47.040;15.498;2022-07-05T12:32:00;96968.41;;;25.02;56.49
61037;BME280;57313;47.040;15.498;2022-07-05T12:34:27;96962.88;;;25.04;55.43
61037;BME280;57313;47.040;15.498;2022-07-05T12:36:57;96968.63;;;25.07;54.96
61037;BME280;57313;47.040;15.498;2022-07-05T12:39:24;96962.44;;;25.00;53.05
61037;BME280;57313;47.040;15.498;2022-07-05T12:41:52;96964.06;;;25.01;51.40
61037;BME280;57313;47.040;15.498;2022-07-05T12:44:20;96975.00;;;25.06;53.41
61037;BME280;57313;47.040;15.498;2022-07-05T12:46:47;96964.97;;;25.08;51.77
61037;BME280;57313;47.040;15.498;2022-07-05T12:49:15;96968.25;;;25.11;49.85
61037;BME280;57313;47.040;15.498;2022-07-05T12:51:43;96965.47;;;25.19;50.54
61037;BME280;57313;47.040;15.498;2022-07-05T12:54:20;96972.28;;;25.28;50.56
61037;BME280;57313;47.040;15.498;2022-07-05T12:56:49;96972.16;;;25.36;50.97